This is the latest recevied weather packets stored in our database for station/object OE3CJB-13. If no packets are shown the sender has not sent any weather packets the latest 10 day(s).
| Time | Temp. | Humidity | Pressure | Rain* | Wind** | Luminosity | Snow |
|---|---|---|---|---|---|---|---|
| 1787671817 | 22.78° C | 44% | 1141.9 hPa | 0 mm | - | - | - |
| 1787670953 | 22.78° C | 44% | 1141.8 hPa | 0 mm | - | - | - |
| 1787670043 | 22.78° C | 43% | 1143.2 hPa | 0 mm | - | - | - |
| 1787669166 | 23.33° C | 43% | 1142.4 hPa | 0 mm | - | - | - |
| 1787668217 | 23.89° C | 40% | 1144.5 hPa | 0 mm | - | - | - |
| 1787667353 | 24.44° C | 36% | 1147.5 hPa | 0 mm | - | - | - |
| 1787666443 | 25.56° C | 32% | 1148.9 hPa | 0 mm | - | - | - |
| 1787665565 | 25.56° C | 31% | 1151 hPa | 0 mm | - | - | - |
| 1787664617 | 26.11° C | 29% | 1150.7 hPa | 0 mm | - | - | - |
| 1787663752 | 26.67° C | 26% | 1151.4 hPa | 0 mm | - | - | - |
| 1787662843 | 26.67° C | 24% | 1150.5 hPa | 0 mm | - | - | - |
| 1787661928 | 27.22° C | 24% | 1151.1 hPa | 0 mm | - | - | - |
| 1787661017 | 27.78° C | 23% | 1149.6 hPa | 0 mm | - | - | - |
| 1787660153 | 27.78° C | 23% | 1150.2 hPa | 0 mm | - | - | - |
| 1787659243 | 28.33° C | 23% | 1147.8 hPa | 0 mm | - | - | - |
| 1787658329 | 27.78° C | 25% | 1148.4 hPa | 0 mm | - | - | - |
| 1787657417 | 27.22° C | 26% | 1147.7 hPa | 0 mm | - | - | - |
| 1787656552 | 26.67° C | 28% | 1147 hPa | 0 mm | - | - | - |
| 1787655643 | 26.67° C | 30% | 1146.3 hPa | 0 mm | - | - | - |
| 1787654728 | 25.56° C | 31% | 1147.1 hPa | 0 mm | - | - | - |
| 1787653816 | 25° C | 32% | 1144.9 hPa | 0 mm | - | - | - |
| 1787652952 | 24.44° C | 32% | 1143.4 hPa | 0 mm | - | - | - |
| 1787652043 | 24.44° C | 34% | 1143.4 hPa | 0 mm | - | - | - |
| 1787651128 | 23.89° C | 35% | 1142 hPa | 0 mm | - | - | - |
| 1787650216 | 23.33° C | 36% | 1140.5 hPa | 0 mm | - | - | - |
* Rain latest hour (hover to see other rain measurements)
** Current wind speed in m/s (hover to see current wind gust speed)